Sun Valley, CA

2:49 AM PDT on March 28, 2015 (GMT -0700)
North Hollywood, CA | | Change Station
CLOSE
Current Station
Personal Weather Station
Location: North Hollywood, CA
Elevation: 679 ft
Nearby Weather Stations

Elev 679 ft 34.18 °N, 118.37 °W | Updated 51 seconds ago

Clear
Clear
63.9 °F
Feels Like 63.9 °F
N
0.0
Wind Variable Wind from ESE
Gusts 0.0 mph

Today
High -- | Low -- °F
--% Chance of Precip.
Yesterday
High -- | Low -- °F
Precip. -- in
6:46 AM 7:11 PM
First Quarter, 61% visible
Pressure 30.01 in
Visibility 10.0 miles
Clouds Clear
Dew Point 38 °F
Humidity 38%
Rainfall 0.00 in
Snow Depth Not available.
UV 0 out of 12
Pollen 9.70 out of 12
Air Quality Not available.
Flu Activity Not available.
METAR KBUR 280653Z 08004KT 10SM CLR 21/M01 A3005 RMK AO2 SLP163 T02111006

More Conditions Fewer Conditions

Pressure 30.01 in
Visibility 10.0 miles
Clouds Clear
Dew Point 38 °F
Humidity 38%
Rainfall 0.00 in
Snow Depth Not available.
UV 0 out of 12
Pollen 9.70 out of 12
Air Quality Not available.
Flu Activity Not available.
METAR KBUR 280653Z 08004KT 10SM CLR 21/M01 A3005 RMK AO2 SLP163 T02111006

More Conditions Fewer Conditions

10-Day Weather Forecast

Almanac

Astronomy

Mar. 28, 2015 Rise Set
Actual Time
Civil Twilight
Nautical Twilight
Astronomical Twilight
Moon
Length of Visible Light
Length of Day
Tomorrow will be .
, % of the Moon is Illuminated

Today's Extremes

State Highs State Lows

Community

WunderPhotos

Upload Photos

1,808,939 photos uploaded!

WunderBlogs® & News

Nearby

Air Quality

  Air Quality AQ Index Pollutant
Not available.

Snow Depth

Station Depth Elevation

Earthquake Activity

City Distance Mag. Time & Date
Minimum magnitude displayed is 2.5.

Coastal Water Temperatures

Place Temperature

Stations

Nearby Weather Stations

Station Location Temp. Windchill Dew Point Humidity Wind Precip. Elev Updated Type